createdAt,value
2022-12-23T00:03:59.808Z,1.40
2022-12-23T00:08:58.121Z,3.00
2022-12-23T00:14:08.606Z,2.30
2022-12-23T00:19:02.451Z,1.77
2022-12-23T00:23:54.999Z,1.77
2022-12-23T00:28:47.483Z,2.37
2022-12-23T00:33:40.797Z,1.80
2022-12-23T00:38:52.067Z,1.83
2022-12-23T00:43:44.558Z,1.10
2022-12-23T00:48:54.796Z,1.03
2022-12-23T00:53:48.717Z,1.33
2022-12-23T00:58:41.517Z,1.83
2022-12-23T01:03:51.426Z,1.40
2022-12-23T01:08:43.977Z,2.50
2022-12-23T01:13:38.432Z,1.00
2022-12-23T01:18:31.007Z,2.63
2022-12-23T01:23:23.558Z,1.17
2022-12-23T01:28:16.060Z,1.10
2022-12-23T01:33:09.921Z,3.80
2022-12-23T01:38:02.415Z,1.10
2022-12-23T01:42:54.912Z,2.03
2022-12-23T01:47:50.514Z,1.10
2022-12-23T01:52:46.656Z,1.20
2022-12-23T01:57:41.621Z,1.30
2022-12-23T02:02:54.755Z,2.40
2022-12-23T02:08:06.226Z,1.30
2022-12-23T02:13:01.645Z,2.00
2022-12-23T02:17:58.655Z,1.40
2022-12-23T02:23:01.912Z,1.10
2022-12-23T02:28:01.248Z,2.50
2022-12-23T02:33:05.947Z,1.17
2022-12-23T02:38:01.898Z,1.83
2022-12-23T02:42:57.119Z,1.37
2022-12-23T02:47:51.575Z,0.90
2022-12-23T02:52:46.104Z,1.33
2022-12-23T02:57:41.131Z,1.10
2022-12-23T03:02:34.293Z,1.60
2022-12-23T03:07:31.085Z,1.33
2022-12-23T03:12:31.800Z,2.10
2022-12-23T03:17:35.807Z,1.60
2022-12-23T03:22:33.372Z,2.20
2022-12-23T03:27:28.599Z,1.40
2022-12-23T03:32:22.650Z,2.00
2022-12-23T03:37:16.935Z,3.27
2022-12-23T03:42:12.685Z,1.70
2022-12-23T03:47:09.028Z,2.57
2022-12-23T03:52:03.899Z,1.73
2022-12-23T03:56:59.055Z,2.50
2022-12-23T04:02:04.148Z,2.57
2022-12-23T04:06:59.236Z,2.13
2022-12-23T04:11:51.804Z,1.37
2022-12-23T04:16:44.381Z,2.17
2022-12-23T04:21:36.870Z,1.70
2022-12-23T04:26:30.715Z,1.63
2022-12-23T04:31:23.378Z,1.63
2022-12-23T04:36:15.987Z,1.20
2022-12-23T04:41:08.628Z,1.10
2022-12-23T04:46:02.499Z,2.07
2022-12-23T04:50:55.170Z,1.20
2022-12-23T04:55:50.634Z,1.10
2022-12-23T05:00:43.178Z,1.53
2022-12-23T05:05:37.132Z,1.47
2022-12-23T05:10:29.621Z,1.13
2022-12-23T05:15:22.109Z,1.93
2022-12-23T05:20:14.658Z,1.63
2022-12-23T05:25:09.572Z,3.40
2022-12-23T05:30:02.091Z,1.30
2022-12-23T05:34:54.653Z,1.40
2022-12-23T05:39:47.126Z,1.30
2022-12-23T05:44:41.042Z,1.60
2022-12-23T05:49:33.522Z,1.83
2022-12-23T05:54:25.999Z,1.50
2022-12-23T05:59:18.521Z,1.93
2022-12-23T06:04:12.402Z,1.57
2022-12-23T06:09:05.006Z,1.43
2022-12-23T06:13:57.708Z,1.50
2022-12-23T06:18:50.323Z,5.20
2022-12-23T06:23:44.255Z,1.50
2022-12-23T06:28:36.822Z,2.27
2022-12-23T06:33:29.445Z,4.00
2022-12-23T06:38:22.008Z,2.50
2022-12-23T06:43:15.890Z,2.47
2022-12-23T06:48:08.442Z,2.20
2022-12-23T06:53:00.941Z,6.57
2022-12-23T06:57:53.418Z,2.50
2022-12-23T07:02:47.325Z,2.20
2022-12-23T07:07:39.902Z,2.90
2022-12-23T07:12:32.401Z,4.80
2022-12-23T07:17:24.911Z,2.80
2022-12-23T07:22:18.760Z,3.20
2022-12-23T07:27:11.419Z,4.87
2022-12-23T07:32:04.384Z,9.50
2022-12-23T07:36:56.969Z,8.20
2022-12-23T07:41:59.037Z,15.30
2022-12-23T07:47:02.211Z,20.47
2022-12-23T07:51:54.695Z,16.73
2022-12-23T07:56:47.190Z,11.47
2022-12-23T08:01:41.148Z,22.77
2022-12-23T08:06:35.808Z,46.53
2022-12-23T08:11:28.367Z,51.83
2022-12-23T08:16:20.945Z,10.27
2022-12-23T08:21:15.757Z,7.00
2022-12-23T08:26:09.316Z,5.97
2022-12-23T08:31:06.066Z,6.17
2022-12-23T08:35:58.822Z,4.93
2022-12-23T08:40:52.660Z,4.83
2022-12-23T08:45:45.761Z,5.90
2022-12-23T08:50:39.018Z,5.60
2022-12-23T08:55:31.579Z,5.20
2022-12-23T09:00:25.475Z,3.77
2022-12-23T09:05:18.030Z,2.40
2022-12-23T09:10:10.770Z,2.30
2022-12-23T09:15:03.379Z,2.60
2022-12-23T09:19:57.238Z,2.20
2022-12-23T09:24:49.805Z,1.70
2022-12-23T09:29:42.305Z,1.87
2022-12-23T09:34:34.841Z,1.83
2022-12-23T09:39:28.737Z,1.43
2022-12-23T09:44:29.786Z,1.43
2022-12-23T09:49:23.184Z,2.70
2022-12-23T09:54:17.765Z,1.63
2022-12-23T09:59:17.577Z,1.50
2022-12-23T10:04:33.631Z,1.80
2022-12-23T10:09:26.251Z,3.57
2022-12-23T10:14:21.677Z,2.07
2022-12-23T10:19:16.348Z,3.00
2022-12-23T10:24:13.694Z,3.80
2022-12-23T10:29:11.790Z,3.70
2022-12-23T10:34:13.690Z,3.00
2022-12-23T10:39:10.502Z,2.80
2022-12-23T10:44:14.030Z,3.33
2022-12-23T10:49:12.826Z,5.53
2022-12-23T10:54:07.745Z,3.80
2022-12-23T10:59:01.328Z,3.50
2022-12-23T11:03:57.342Z,3.50
2022-12-23T11:08:50.302Z,4.37
2022-12-23T11:13:46.179Z,2.97
2022-12-23T11:18:42.030Z,4.63
2022-12-23T11:23:36.568Z,2.73
2022-12-23T11:28:30.004Z,2.50
2022-12-23T11:33:25.187Z,3.00
2022-12-23T11:38:17.743Z,3.33
2022-12-23T11:43:14.194Z,2.63
2022-12-23T11:48:07.148Z,2.07
2022-12-23T11:53:13.951Z,2.80
2022-12-23T11:58:06.880Z,2.50
2022-12-23T12:03:01.083Z,2.30
2022-12-23T12:07:53.759Z,2.30
2022-12-23T12:12:52.869Z,4.90
2022-12-23T12:17:49.330Z,2.73
2022-12-23T12:22:44.965Z,2.70
2022-12-23T12:27:39.316Z,2.43
2022-12-23T12:32:36.369Z,2.80
2022-12-23T12:37:32.455Z,3.37
2022-12-23T12:42:28.240Z,2.80
2022-12-23T12:52:40.637Z,2.40
2022-12-23T12:57:37.049Z,1.90
2022-12-23T13:02:37.756Z,2.07
2022-12-23T13:07:33.910Z,2.10
2022-12-23T13:12:33.384Z,3.77
2022-12-23T13:17:27.538Z,1.70
2022-12-23T13:22:24.480Z,1.90
2022-12-23T13:27:19.936Z,2.33
2022-12-23T13:32:20.788Z,1.90
2022-12-23T13:37:17.842Z,2.33
2022-12-23T13:42:13.234Z,3.00
2022-12-23T13:47:09.213Z,2.40
2022-12-23T13:52:07.097Z,2.47
2022-12-23T13:57:08.127Z,2.60
2022-12-23T14:02:00.777Z,1.87
2022-12-23T14:06:54.361Z,1.53
2022-12-23T14:11:48.236Z,2.07
2022-12-23T14:16:48.594Z,1.60
2022-12-23T14:21:44.971Z,4.43
2022-12-23T14:26:49.736Z,3.13
2022-12-23T14:31:45.016Z,3.80
2022-12-23T14:36:37.743Z,2.07
2022-12-23T14:41:39.689Z,3.40
2022-12-23T14:46:59.094Z,1.60
2022-12-23T14:51:53.318Z,1.80
2022-12-23T14:56:52.540Z,2.17
2022-12-23T15:01:48.393Z,1.77
2022-12-23T15:06:42.841Z,2.13
2022-12-23T15:11:37.574Z,2.17
2022-12-23T15:16:32.408Z,2.73
2022-12-23T15:21:29.387Z,2.30
2022-12-23T15:26:23.341Z,1.83
2022-12-23T15:31:22.952Z,3.60
2022-12-23T15:36:16.078Z,2.67
2022-12-23T15:41:15.327Z,1.90
2022-12-23T15:46:09.214Z,2.23
2022-12-23T15:51:04.681Z,2.73
2022-12-23T15:55:57.338Z,1.97
2022-12-23T16:00:54.949Z,1.87
2022-12-23T16:05:47.588Z,1.50
2022-12-23T16:10:42.682Z,1.50
2022-12-23T16:15:35.375Z,3.00
2022-12-23T16:20:27.992Z,1.40
2022-12-23T16:25:24.646Z,2.27
2022-12-23T16:30:19.796Z,2.77
2022-12-23T16:35:13.195Z,1.70
2022-12-23T16:40:13.210Z,2.17
2022-12-23T16:45:06.090Z,2.07
2022-12-23T16:49:59.971Z,7.73
2022-12-23T16:54:52.689Z,2.70
2022-12-23T16:59:46.919Z,2.90
2022-12-23T17:04:39.479Z,2.40
2022-12-23T17:09:33.346Z,3.17
2022-12-23T17:14:26.444Z,3.00
2022-12-23T17:19:27.291Z,3.17
2022-12-23T17:24:23.810Z,2.73
2022-12-23T17:29:17.742Z,2.20
2022-12-23T17:34:11.861Z,4.20
2022-12-23T17:39:04.466Z,3.30
2022-12-23T17:43:57.173Z,5.07
2022-12-23T17:48:51.090Z,4.67
2022-12-23T17:53:43.862Z,2.43
2022-12-23T17:58:36.380Z,2.30
2022-12-23T18:03:29.668Z,5.73
2022-12-23T18:08:23.512Z,6.40
2022-12-23T18:13:17.953Z,5.80
2022-12-23T18:18:13.051Z,8.10
2022-12-23T18:23:05.625Z,8.47
2022-12-23T18:27:59.527Z,4.37
2022-12-23T18:32:52.063Z,3.03
2022-12-23T18:37:44.582Z,5.90
2022-12-23T18:42:37.166Z,5.73
2022-12-23T18:47:31.612Z,4.13
2022-12-23T18:52:26.338Z,15.87
2022-12-23T18:57:19.157Z,7.13
2022-12-23T19:02:14.162Z,7.60
2022-12-23T19:07:10.647Z,8.13
2022-12-23T19:12:03.704Z,9.80
2022-12-23T19:16:59.878Z,5.77
2022-12-23T19:21:52.441Z,5.60
2022-12-23T19:26:55.844Z,3.87
2022-12-23T19:31:48.464Z,3.20
2022-12-23T19:36:41.115Z,2.27
2022-12-23T19:41:36.409Z,2.50
2022-12-23T19:46:30.452Z,2.83
2022-12-23T19:51:23.077Z,1.93
2022-12-23T19:56:16.667Z,2.47
2022-12-23T20:01:10.080Z,2.70
2022-12-23T20:06:04.099Z,6.77
2022-12-23T20:11:02.963Z,4.13
2022-12-23T20:15:55.544Z,3.60
2022-12-23T20:20:48.120Z,2.50
2022-12-23T20:25:42.029Z,3.37
2022-12-23T20:30:34.794Z,1.50
2022-12-23T20:35:27.351Z,2.33
2022-12-23T20:40:20.152Z,1.10
2022-12-23T20:45:14.240Z,1.73
2022-12-23T20:50:07.465Z,3.80
2022-12-23T20:55:01.599Z,4.00
2022-12-23T20:59:54.141Z,2.97
2022-12-23T21:04:48.192Z,4.10
2022-12-23T21:09:40.694Z,3.00
2022-12-23T21:14:33.293Z,3.30
2022-12-23T21:19:26.574Z,2.70
2022-12-23T21:24:20.798Z,4.80
2022-12-23T21:29:15.007Z,6.30
2022-12-23T21:34:07.732Z,3.70
2022-12-23T21:39:00.380Z,7.13
2022-12-23T21:43:54.480Z,3.80
2022-12-23T21:48:47.277Z,4.57
2022-12-23T21:53:40.246Z,3.87
2022-12-23T21:58:33.011Z,4.10
2022-12-23T22:03:27.611Z,4.43
2022-12-23T22:08:20.443Z,5.20
2022-12-23T22:13:12.933Z,6.10
2022-12-23T22:18:05.701Z,10.27
2022-12-23T22:22:59.618Z,8.40
2022-12-23T22:27:52.133Z,5.20
2022-12-23T22:32:44.708Z,3.40
2022-12-23T22:37:37.249Z,6.97
2022-12-23T22:42:31.147Z,3.00
2022-12-23T22:47:23.676Z,3.33
2022-12-23T22:52:16.344Z,5.20
2022-12-23T22:57:09.987Z,4.00
2022-12-23T23:02:04.011Z,4.10
2022-12-23T23:06:56.601Z,5.57
2022-12-23T23:11:49.166Z,4.13
2022-12-23T23:16:41.825Z,9.70
2022-12-23T23:21:37.647Z,7.30
2022-12-23T23:26:30.350Z,9.07
2022-12-23T23:36:36.899Z,8.40
2022-12-23T23:41:29.678Z,5.53
2022-12-23T23:46:22.287Z,6.50
2022-12-23T23:51:15.025Z,7.40
2022-12-23T23:56:09.474Z,7.30
